»·PEaware :: DAL365 KPHX-KSFO

DAL365 :: KPHX-KSFO

FLIGHT INFORMATION

Flight Status: Arrived
Operator:
Delta Air Lines
More flights by this operator :: More flights under this callsign
Pilot: Sergei F. (8485)
Aircraft: BOEING 757-200
(B752)
More flights by this aircraft type
Origin: KPHX Phoenix Sky Harbor Intl
United States
Destination: KSFO San Francisco Intl
United States
More flights between these airports :: More routes between these airports
Route: +IZZZO6 HRRBR CURIV J212 DECAS PMD J6 AVE SERFR SERFR2
File this flight plan on PilotEdge
Remarks:
Altitude:
(Current/Filed)
350ft
Speed:
(Current/Filed)
300kts
Departed: 06-Jan-18 08:11 PM
Arrived: 06-Jan-18 09:56 PM
Distance/Time
Traveled:
565nm/1:45
Distance/Time
To Go:
Arrived

Flight Plot

Page will automatically refresh every two minutes.

Flight plan parsing failed; only flown route is shown


Map Options




Map Legend


Flown Route
Filed Route
Departure Airport
Arrival Airport
Navaid (VOR, NDB)
Fix

Horizontal Profiles

Position Reports

Time Latitude Longitude Heading Altitude Ground
Speed
06-Jan-18 19:39 33.426353 -112.018341 90 1121ft 0kts
06-Jan-18 19:40 33.426353 -112.018341 90 1120ft 0kts
06-Jan-18 19:41 33.426353 -112.018341 90 1120ft 0kts
06-Jan-18 19:42 33.426353 -112.018341 90 1120ft 0kts
06-Jan-18 19:43 33.426353 -112.018341 90 1120ft 0kts
06-Jan-18 19:44 33.426353 -112.018341 90 1120ft 0kts
06-Jan-18 19:45 33.426353 -112.018341 90 1120ft 0kts
06-Jan-18 19:46 33.426353 -112.018341 90 1120ft 0kts
06-Jan-18 19:47 33.426353 -112.018341 90 1120ft 0kts
06-Jan-18 19:48 33.426353 -112.018341 90 1120ft 0kts
06-Jan-18 19:49 33.426353 -112.018341 90 1120ft 0kts
06-Jan-18 19:50 33.426353 -112.018341 90 1120ft 0kts
06-Jan-18 19:51 33.426353 -112.018341 90 1120ft 0kts
06-Jan-18 19:52 33.426353 -112.018341 90 1120ft 0kts
06-Jan-18 19:53 33.426353 -112.018341 90 1120ft 0kts
06-Jan-18 19:54 33.426353 -112.018341 90 1120ft 0kts
06-Jan-18 19:55 33.426353 -112.018341 90 1120ft 0kts
06-Jan-18 19:56 33.426353 -112.018341 90 1120ft 0kts
06-Jan-18 19:57 33.426353 -112.018341 90 1120ft 0kts
06-Jan-18 19:58 33.426353 -112.018341 90 1120ft 0kts
06-Jan-18 19:59 33.426353 -112.018341 90 1120ft 0kts
06-Jan-18 20:00 33.426353 -112.018341 90 1120ft 0kts
06-Jan-18 20:01 33.426353 -112.018341 90 1120ft 0kts
06-Jan-18 20:02 33.426353 -112.018341 90 1120ft 0kts
06-Jan-18 20:03 33.426353 -112.018341 90 1120ft 0kts
06-Jan-18 20:04 33.426353 -112.018341 90 1120ft 0kts
06-Jan-18 20:05 33.426353 -112.018341 90 1120ft 0kts
06-Jan-18 20:06 33.426353 -112.018319 90 1120ft 0kts
06-Jan-18 20:07 33.426763 -112.017458 7 1120ft 5kts
06-Jan-18 20:08 33.427744 -112.016632 88 1122ft 5kts
06-Jan-18 20:09 33.427745 -112.013739 90 1122ft 8kts
06-Jan-18 20:10 33.427747 -112.010892 90 1124ft 9kts
06-Jan-18 20:11 33.427752 -112.007239 89 1124ft 10kts
06-Jan-18 20:12 33.428339 -112.005289 1 1124ft 8kts
06-Jan-18 20:13 33.429917 -112.003709 82 1127ft 10kts
06-Jan-18 20:14 33.429940 -111.999644 89 1127ft 14kts
06-Jan-18 20:15 33.429940 -111.994746 89 1127ft 13kts
06-Jan-18 20:16 33.430977 -111.993608 306 1127ft 7kts
06-Jan-18 20:17 33.431043 -111.999339 270 1127ft 91kts
06-Jan-18 20:18 33.431044 -112.050097 273 2546ft 174kts
06-Jan-18 20:19 33.434992 -112.108763 274 4986ft 181kts
06-Jan-18 20:20 33.436744 -112.167490 275 7327ft 177kts
06-Jan-18 20:21 33.438620 -112.227344 274 9019ft 180kts
06-Jan-18 20:22 33.440555 -112.291815 271 10432ft 210kts
06-Jan-18 20:23 33.442936 -112.367379 271 11911ft 240kts
06-Jan-18 20:24 33.445620 -112.450398 271 14088ft 249kts
06-Jan-18 20:25 33.447646 -112.535876 270 15602ft 274kts
06-Jan-18 20:26 33.450453 -112.636447 270 16411ft 325kts
06-Jan-18 20:27 33.451982 -112.747878 269 18186ft 346kts
06-Jan-18 20:28 33.463461 -112.865594 281 20179ft 362kts
06-Jan-18 20:29 33.487096 -112.984894 280 21779ft 381kts
06-Jan-18 20:30 33.510606 -113.110231 280 23680ft 388kts
06-Jan-18 20:31 33.534110 -113.237313 280 25486ft 395kts
06-Jan-18 20:32 33.557703 -113.365809 280 27097ft 402kts
06-Jan-18 20:33 33.581781 -113.497805 280 28600ft 409kts
06-Jan-18 20:34 33.606703 -113.631687 280 29984ft 414kts
06-Jan-18 20:35 33.631107 -113.763122 279 31957ft 403kts
06-Jan-18 20:36 33.655013 -113.892714 279 33830ft 394kts
06-Jan-18 20:37 33.678051 -114.018249 279 35419ft 389kts
06-Jan-18 20:38 33.701252 -114.145478 279 36070ft 386kts
06-Jan-18 20:39 33.724045 -114.271175 279 36067ft 386kts
06-Jan-18 20:40 33.746704 -114.396912 279 36067ft 386kts
06-Jan-18 20:41 33.769294 -114.523052 279 36062ft 386kts
06-Jan-18 20:42 33.779129 -114.650096 272 36062ft 384kts
06-Jan-18 20:43 33.786400 -114.774161 272 36077ft 384kts
06-Jan-18 20:44 33.793719 -114.902805 272 36073ft 383kts
06-Jan-18 20:45 33.800842 -115.030521 271 36075ft 385kts
06-Jan-18 20:46 33.807873 -115.159073 271 36072ft 387kts
06-Jan-18 20:47 33.814764 -115.287949 270 36065ft 388kts
06-Jan-18 20:48 33.821590 -115.417984 271 36059ft 388kts
06-Jan-18 20:49 33.851993 -115.543661 285 36056ft 396kts
06-Jan-18 20:50 33.889009 -115.659365 285 36061ft 397kts
06-Jan-18 20:51 33.926866 -115.777544 285 36071ft 397kts
06-Jan-18 20:52 33.966453 -115.901488 285 36090ft 397kts
06-Jan-18 20:53 34.005718 -116.024929 285 36117ft 396kts
06-Jan-18 20:54 34.044760 -116.148165 285 36140ft 397kts
06-Jan-18 20:55 34.083857 -116.272067 285 36133ft 397kts
06-Jan-18 20:56 34.121765 -116.392707 285 36105ft 397kts
06-Jan-18 20:57 34.160258 -116.515664 285 36098ft 398kts
06-Jan-18 20:58 34.199130 -116.640374 285 36081ft 397kts
06-Jan-18 20:59 34.236315 -116.760169 284 36126ft 397kts
06-Jan-18 21:00 34.274285 -116.882985 284 36149ft 396kts
06-Jan-18 21:01 34.312936 -117.008497 284 36147ft 398kts
06-Jan-18 21:02 34.350994 -117.132624 283 36160ft 399kts
06-Jan-18 21:03 34.389277 -117.258047 283 36159ft 398kts
06-Jan-18 21:04 34.427213 -117.382845 283 36157ft 398kts
06-Jan-18 21:05 34.464719 -117.506742 283 36154ft 398kts
06-Jan-18 21:06 34.502736 -117.632860 284 36150ft 399kts
06-Jan-18 21:07 34.539277 -117.754616 283 36177ft 399kts
06-Jan-18 21:08 34.576878 -117.880426 283 36192ft 398kts
06-Jan-18 21:09 34.614325 -118.006260 283 36186ft 399kts
06-Jan-18 21:10 34.671533 -118.121452 301 36189ft 409kts
06-Jan-18 21:11 34.744296 -118.226606 301 36190ft 409kts
06-Jan-18 21:12 34.817727 -118.332943 301 36188ft 409kts
06-Jan-18 21:13 34.890364 -118.438409 301 36204ft 408kts
06-Jan-18 21:14 34.961404 -118.541805 300 36220ft 399kts
06-Jan-18 21:15 35.027415 -118.645066 290 36234ft 375kts
06-Jan-18 21:16 35.077001 -118.751951 290 36246ft 374kts
06-Jan-18 21:17 35.127473 -118.859256 290 36224ft 377kts
06-Jan-18 21:18 35.179408 -118.969607 290 36210ft 380kts
06-Jan-18 21:19 35.232496 -119.082699 289 36208ft 384kts
06-Jan-18 21:20 35.285358 -119.195657 289 36205ft 383kts
06-Jan-18 21:21 35.337526 -119.307501 289 36201ft 383kts
06-Jan-18 21:22 35.390365 -119.421164 289 36199ft 383kts
06-Jan-18 21:23 35.442689 -119.534092 289 36200ft 384kts
06-Jan-18 21:24 35.495476 -119.648391 289 36194ft 384kts
06-Jan-18 21:25 35.547019 -119.760377 288 36216ft 383kts
06-Jan-18 21:26 35.599057 -119.873811 289 36211ft 383kts
06-Jan-18 21:27 35.651099 -119.988394 285 36204ft 378kts
06-Jan-18 21:28 35.687501 -120.107929 282 36200ft 374kts
06-Jan-18 21:29 35.724260 -120.227646 282 36197ft 374kts
06-Jan-18 21:30 35.761033 -120.347217 282 36198ft 375kts
06-Jan-18 21:31 35.797734 -120.466890 282 36192ft 374kts
06-Jan-18 21:32 35.834338 -120.586719 282 36191ft 374kts
06-Jan-18 21:33 35.870465 -120.705456 281 36211ft 373kts
06-Jan-18 21:34 35.906938 -120.825803 282 36009ft 370kts
06-Jan-18 21:35 35.941700 -120.940953 281 34372ft 356kts
06-Jan-18 21:36 35.976529 -121.057029 281 32549ft 369kts
06-Jan-18 21:37 36.012632 -121.177745 282 30713ft 383kts
06-Jan-18 21:38 36.049455 -121.301230 282 28925ft 382kts
06-Jan-18 21:39 36.113938 -121.401924 317 27229ft 417kts
06-Jan-18 21:40 36.209822 -121.475246 318 25347ft 405kts
06-Jan-18 21:41 36.304221 -121.548945 318 23548ft 394kts
06-Jan-18 21:42 36.394820 -121.620045 319 21857ft 384kts
06-Jan-18 21:43 36.483932 -121.690178 319 20269ft 367kts
06-Jan-18 21:44 36.566117 -121.755082 320 18793ft 344kts
06-Jan-18 21:45 36.645794 -121.818213 321 17184ft 338kts
06-Jan-18 21:46 36.724228 -121.880481 322 15395ft 330kts
06-Jan-18 21:47 36.812706 -121.913937 342 13856ft 334kts
06-Jan-18 21:48 36.902393 -121.939118 343 12334ft 327kts
06-Jan-18 21:49 36.988560 -121.967055 339 11062ft 309kts
06-Jan-18 21:50 37.066568 -121.997773 340 10045ft 280kts
06-Jan-18 21:51 37.137229 -122.025447 341 8964ft 269kts
06-Jan-18 21:52 37.208037 -122.053187 341 7836ft 262kts
06-Jan-18 21:53 37.276262 -122.079971 341 6904ft 253kts
06-Jan-18 21:54 37.343238 -122.106298 341 5805ft 249kts
06-Jan-18 21:55 37.406690 -122.131226 341 4740ft 237kts
06-Jan-18 21:56 37.467869 -122.154842 346 3894ft 222kts
06-Jan-18 21:57 37.523354 -122.170461 344 3130ft 196kts
06-Jan-18 21:58 37.553858 -122.220047 298 2348ft 170kts
06-Jan-18 21:59 37.572574 -122.265237 299 1653ft 136kts
06-Jan-18 22:00 37.590101 -122.306837 298 968ft 134kts
06-Jan-18 22:01 37.607331 -122.347903 298 230ft 130kts
06-Jan-18 22:02 37.618936 -122.376374 276 27ft 28kts
06-Jan-18 22:03 37.618941 -122.380037 279 34ft 6kts
06-Jan-18 22:04 37.618728 -122.382403 164 34ft 7kts
06-Jan-18 22:05 37.618360 -122.382032 138 34ft 0kts
06-Jan-18 22:06 37.618360 -122.382032 138 34ft 0kts
06-Jan-18 22:07 37.618360 -122.382032 138 34ft 0kts
06-Jan-18 22:08 37.618360 -122.382032 138 35ft 0kts

Navigation Log

Ident Type
Flight plan parsing failed, navigation log unavailable